sensor_id;sensor_type;location;lat;lon;timestamp;P1;durP1;ratioP1;P2;durP2;ratioP2
43646;SDS011;56152;49.996;18.980;2023-02-05T00:04:29;15.67;;;6.57;;
43646;SDS011;56152;49.996;18.980;2023-02-05T00:09:33;12.03;;;6.37;;
43646;SDS011;56152;49.996;18.980;2023-02-05T00:14:41;20.40;;;7.37;;
43646;SDS011;56152;49.996;18.980;2023-02-05T00:19:43;16.23;;;7.57;;
43646;SDS011;56152;49.996;18.980;2023-02-05T00:24:45;15.23;;;7.30;;
43646;SDS011;56152;49.996;18.980;2023-02-05T00:29:49;16.00;;;7.73;;
43646;SDS011;56152;49.996;18.980;2023-02-05T00:40:02;15.27;;;7.90;;
43646;SDS011;56152;49.996;18.980;2023-02-05T00:45:10;11.90;;;6.07;;
43646;SDS011;56152;49.996;18.980;2023-02-05T00:50:12;17.90;;;7.87;;
43646;SDS011;56152;49.996;18.980;2023-02-05T00:55:15;28.07;;;11.10;;
43646;SDS011;56152;49.996;18.980;2023-02-05T01:00:21;16.37;;;7.50;;
43646;SDS011;56152;49.996;18.980;2023-02-05T01:05:25;17.07;;;7.30;;
43646;SDS011;56152;49.996;18.980;2023-02-05T01:10:31;17.60;;;8.10;;
43646;SDS011;56152;49.996;18.980;2023-02-05T01:15:35;16.37;;;8.50;;
43646;SDS011;56152;49.996;18.980;2023-02-05T01:20:38;17.03;;;8.13;;
43646;SDS011;56152;49.996;18.980;2023-02-05T01:25:47;14.60;;;8.57;;
43646;SDS011;56152;49.996;18.980;2023-02-05T01:30:51;18.03;;;8.20;;
43646;SDS011;56152;49.996;18.980;2023-02-05T01:35:53;15.63;;;8.00;;
43646;SDS011;56152;49.996;18.980;2023-02-05T01:40:55;21.23;;;10.37;;
43646;SDS011;56152;49.996;18.980;2023-02-05T01:51:35;13.93;;;8.97;;
43646;SDS011;56152;49.996;18.980;2023-02-05T01:56:38;19.70;;;7.97;;
43646;SDS011;56152;49.996;18.980;2023-02-05T02:01:44;11.20;;;6.43;;
43646;SDS011;56152;49.996;18.980;2023-02-05T02:06:59;14.17;;;7.27;;
43646;SDS011;56152;49.996;18.980;2023-02-05T02:12:02;15.37;;;6.90;;
43646;SDS011;56152;49.996;18.980;2023-02-05T02:17:12;15.33;;;7.00;;
43646;SDS011;56152;49.996;18.980;2023-02-05T02:22:32;13.30;;;7.10;;
43646;SDS011;56152;49.996;18.980;2023-02-05T02:27:50;14.53;;;7.50;;
43646;SDS011;56152;49.996;18.980;2023-02-05T02:33:02;15.37;;;7.43;;
43646;SDS011;56152;49.996;18.980;2023-02-05T02:38:16;20.90;;;8.17;;
43646;SDS011;56152;49.996;18.980;2023-02-05T02:43:33;16.93;;;8.20;;
43646;SDS011;56152;49.996;18.980;2023-02-05T02:48:45;13.83;;;8.33;;
43646;SDS011;56152;49.996;18.980;2023-02-05T02:53:53;16.57;;;6.77;;
43646;SDS011;56152;49.996;18.980;2023-02-05T02:59:01;22.70;;;10.07;;
43646;SDS011;56152;49.996;18.980;2023-02-05T03:04:07;19.23;;;8.73;;
43646;SDS011;56152;49.996;18.980;2023-02-05T03:09:28;16.77;;;8.50;;
43646;SDS011;56152;49.996;18.980;2023-02-05T03:14:36;29.13;;;11.40;;
43646;SDS011;56152;49.996;18.980;2023-02-05T03:25:11;24.90;;;11.33;;
43646;SDS011;56152;49.996;18.980;2023-02-05T03:30:16;22.80;;;10.60;;
43646;SDS011;56152;49.996;18.980;2023-02-05T03:35:20;21.83;;;11.60;;
43646;SDS011;56152;49.996;18.980;2023-02-05T03:40:30;14.50;;;8.53;;
43646;SDS011;56152;49.996;18.980;2023-02-05T03:45:57;17.37;;;9.83;;
43646;SDS011;56152;49.996;18.980;2023-02-05T03:51:09;19.43;;;9.70;;
43646;SDS011;56152;49.996;18.980;2023-02-05T03:56:31;14.77;;;8.37;;
43646;SDS011;56152;49.996;18.980;2023-02-05T04:01:43;23.83;;;10.33;;
43646;SDS011;56152;49.996;18.980;2023-02-05T04:06:54;23.10;;;9.87;;
43646;SDS011;56152;49.996;18.980;2023-02-05T04:11:57;21.67;;;9.87;;
43646;SDS011;56152;49.996;18.980;2023-02-05T04:17:02;30.90;;;13.73;;
43646;SDS011;56152;49.996;18.980;2023-02-05T04:22:06;41.80;;;17.83;;
43646;SDS011;56152;49.996;18.980;2023-02-05T04:27:08;30.73;;;15.53;;
43646;SDS011;56152;49.996;18.980;2023-02-05T04:32:13;33.00;;;14.27;;
43646;SDS011;56152;49.996;18.980;2023-02-05T04:37:15;24.20;;;13.23;;
43646;SDS011;56152;49.996;18.980;2023-02-05T04:42:19;33.57;;;15.60;;
43646;SDS011;56152;49.996;18.980;2023-02-05T04:47:24;26.67;;;14.00;;
43646;SDS011;56152;49.996;18.980;2023-02-05T04:52:35;31.17;;;16.40;;
43646;SDS011;56152;49.996;18.980;2023-02-05T05:02:42;28.03;;;12.97;;
43646;SDS011;56152;49.996;18.980;2023-02-05T05:07:44;37.73;;;15.40;;
43646;SDS011;56152;49.996;18.980;2023-02-05T05:18:29;35.33;;;18.00;;
43646;SDS011;56152;49.996;18.980;2023-02-05T05:23:32;34.37;;;16.77;;
43646;SDS011;56152;49.996;18.980;2023-02-05T05:28:40;33.50;;;16.43;;
43646;SDS011;56152;49.996;18.980;2023-02-05T05:33:44;34.20;;;15.87;;
43646;SDS011;56152;49.996;18.980;2023-02-05T05:38:54;22.73;;;12.23;;
43646;SDS011;56152;49.996;18.980;2023-02-05T05:44:20;22.87;;;10.23;;
43646;SDS011;56152;49.996;18.980;2023-02-05T05:49:38;24.80;;;11.23;;
43646;SDS011;56152;49.996;18.980;2023-02-05T05:54:40;36.80;;;16.50;;
43646;SDS011;56152;49.996;18.980;2023-02-05T05:59:42;31.43;;;15.60;;
43646;SDS011;56152;49.996;18.980;2023-02-05T06:04:47;29.60;;;13.30;;
43646;SDS011;56152;49.996;18.980;2023-02-05T06:09:49;27.50;;;12.13;;
43646;SDS011;56152;49.996;18.980;2023-02-05T06:14:57;24.93;;;12.53;;
43646;SDS011;56152;49.996;18.980;2023-02-05T06:20:01;69.10;;;23.40;;
43646;SDS011;56152;49.996;18.980;2023-02-05T06:25:03;83.20;;;29.10;;
43646;SDS011;56152;49.996;18.980;2023-02-05T06:30:06;41.43;;;18.83;;
43646;SDS011;56152;49.996;18.980;2023-02-05T06:35:12;38.20;;;18.70;;
43646;SDS011;56152;49.996;18.980;2023-02-05T06:40:17;34.13;;;16.90;;
43646;SDS011;56152;49.996;18.980;2023-02-05T06:45:21;34.10;;;17.23;;
43646;SDS011;56152;49.996;18.980;2023-02-05T06:50:33;41.43;;;19.17;;
43646;SDS011;56152;49.996;18.980;2023-02-05T06:55:36;57.83;;;26.75;;
43646;SDS011;56152;49.996;18.980;2023-02-05T07:00:43;51.10;;;25.67;;
43646;SDS011;56152;49.996;18.980;2023-02-05T07:05:46;53.17;;;28.80;;
43646;SDS011;56152;49.996;18.980;2023-02-05T07:10:54;45.57;;;25.47;;
43646;SDS011;56152;49.996;18.980;2023-02-05T07:16:01;46.50;;;24.37;;
43646;SDS011;56152;49.996;18.980;2023-02-05T07:21:08;40.53;;;21.87;;
43646;SDS011;56152;49.996;18.980;2023-02-05T07:26:13;40.63;;;19.00;;
43646;SDS011;56152;49.996;18.980;2023-02-05T07:31:17;49.83;;;23.30;;
43646;SDS011;56152;49.996;18.980;2023-02-05T07:36:26;41.47;;;20.33;;
43646;SDS011;56152;49.996;18.980;2023-02-05T07:41:28;67.90;;;23.27;;
43646;SDS011;56152;49.996;18.980;2023-02-05T07:46:31;57.83;;;22.20;;
43646;SDS011;56152;49.996;18.980;2023-02-05T07:51:38;73.27;;;29.00;;
43646;SDS011;56152;49.996;18.980;2023-02-05T07:56:40;82.20;;;29.37;;
43646;SDS011;56152;49.996;18.980;2023-02-05T08:01:43;60.60;;;24.27;;
43646;SDS011;56152;49.996;18.980;2023-02-05T08:06:47;36.57;;;16.10;;
43646;SDS011;56152;49.996;18.980;2023-02-05T08:11:49;45.50;;;18.30;;
43646;SDS011;56152;49.996;18.980;2023-02-05T08:16:51;27.40;;;14.70;;
43646;SDS011;56152;49.996;18.980;2023-02-05T08:21:55;33.50;;;14.77;;
43646;SDS011;56152;49.996;18.980;2023-02-05T08:26:57;29.50;;;13.63;;
43646;SDS011;56152;49.996;18.980;2023-02-05T08:31:59;27.83;;;15.17;;
43646;SDS011;56152;49.996;18.980;2023-02-05T08:37:04;25.77;;;12.83;;
43646;SDS011;56152;49.996;18.980;2023-02-05T08:42:09;24.87;;;11.17;;
43646;SDS011;56152;49.996;18.980;2023-02-05T08:47:14;29.83;;;14.37;;
43646;SDS011;56152;49.996;18.980;2023-02-05T08:52:21;22.87;;;10.40;;
43646;SDS011;56152;49.996;18.980;2023-02-05T08:57:36;15.43;;;8.50;;
43646;SDS011;56152;49.996;18.980;2023-02-05T09:02:40;12.17;;;6.80;;
43646;SDS011;56152;49.996;18.980;2023-02-05T09:08:00;24.43;;;12.90;;
43646;SDS011;56152;49.996;18.980;2023-02-05T09:13:06;17.50;;;8.50;;
43646;SDS011;56152;49.996;18.980;2023-02-05T09:18:09;21.07;;;9.63;;
43646;SDS011;56152;49.996;18.980;2023-02-05T09:23:24;33.40;;;20.33;;
43646;SDS011;56152;49.996;18.980;2023-02-05T09:28:26;14.87;;;7.80;;
43646;SDS011;56152;49.996;18.980;2023-02-05T09:33:30;18.03;;;8.70;;
43646;SDS011;56152;49.996;18.980;2023-02-05T09:38:36;29.63;;;13.00;;
43646;SDS011;56152;49.996;18.980;2023-02-05T09:43:43;16.07;;;8.83;;
43646;SDS011;56152;49.996;18.980;2023-02-05T09:48:53;25.03;;;11.40;;
43646;SDS011;56152;49.996;18.980;2023-02-05T09:54:09;22.23;;;11.57;;
43646;SDS011;56152;49.996;18.980;2023-02-05T09:59:32;14.13;;;7.47;;
43646;SDS011;56152;49.996;18.980;2023-02-05T10:04:40;29.87;;;11.93;;
43646;SDS011;56152;49.996;18.980;2023-02-05T10:09:49;14.67;;;8.83;;
43646;SDS011;56152;49.996;18.980;2023-02-05T10:15:11;18.60;;;9.47;;
43646;SDS011;56152;49.996;18.980;2023-02-05T10:20:30;40.67;;;15.70;;
43646;SDS011;56152;49.996;18.980;2023-02-05T10:25:56;23.20;;;8.70;;
43646;SDS011;56152;49.996;18.980;2023-02-05T10:31:06;27.73;;;11.77;;
43646;SDS011;56152;49.996;18.980;2023-02-05T10:36:20;43.23;;;14.57;;
43646;SDS011;56152;49.996;18.980;2023-02-05T10:41:36;26.20;;;11.57;;
43646;SDS011;56152;49.996;18.980;2023-02-05T10:51:54;51.00;;;22.17;;
43646;SDS011;56152;49.996;18.980;2023-02-05T10:56:58;23.20;;;11.30;;
43646;SDS011;56152;49.996;18.980;2023-02-05T11:02:05;23.87;;;11.47;;
43646;SDS011;56152;49.996;18.980;2023-02-05T11:07:15;17.20;;;7.73;;
43646;SDS011;56152;49.996;18.980;2023-02-05T11:12:27;17.37;;;7.50;;
43646;SDS011;56152;49.996;18.980;2023-02-05T11:17:32;26.47;;;13.33;;
43646;SDS011;56152;49.996;18.980;2023-02-05T11:22:42;54.90;;;28.63;;
43646;SDS011;56152;49.996;18.980;2023-02-05T11:27:55;22.80;;;10.37;;
43646;SDS011;56152;49.996;18.980;2023-02-05T11:33:16;14.47;;;6.07;;
43646;SDS011;56152;49.996;18.980;2023-02-05T11:38:26;10.63;;;5.97;;
43646;SDS011;56152;49.996;18.980;2023-02-05T11:43:35;24.97;;;9.57;;
43646;SDS011;56152;49.996;18.980;2023-02-05T11:48:48;20.47;;;7.47;;
43646;SDS011;56152;49.996;18.980;2023-02-05T11:53:59;29.90;;;11.67;;
43646;SDS011;56152;49.996;18.980;2023-02-05T11:59:15;24.07;;;9.93;;
43646;SDS011;56152;49.996;18.980;2023-02-05T12:04:25;26.83;;;13.70;;
43646;SDS011;56152;49.996;18.980;2023-02-05T12:15:02;9.57;;;4.60;;
43646;SDS011;56152;49.996;18.980;2023-02-05T12:20:33;7.77;;;4.47;;
43646;SDS011;56152;49.996;18.980;2023-02-05T12:31:39;10.20;;;4.90;;
43646;SDS011;56152;49.996;18.980;2023-02-05T12:37:13;25.77;;;9.73;;
43646;SDS011;56152;49.996;18.980;2023-02-05T12:42:34;17.93;;;8.07;;
43646;SDS011;56152;49.996;18.980;2023-02-05T12:53:24;12.07;;;6.20;;
43646;SDS011;56152;49.996;18.980;2023-02-05T12:58:36;9.37;;;5.97;;
43646;SDS011;56152;49.996;18.980;2023-02-05T13:09:01;13.63;;;6.93;;
43646;SDS011;56152;49.996;18.980;2023-02-05T13:14:08;11.53;;;6.27;;
43646;SDS011;56152;49.996;18.980;2023-02-05T13:19:30;11.20;;;6.47;;
43646;SDS011;56152;49.996;18.980;2023-02-05T13:24:46;10.20;;;6.03;;
43646;SDS011;56152;49.996;18.980;2023-02-05T13:30:10;12.70;;;7.17;;
43646;SDS011;56152;49.996;18.980;2023-02-05T13:35:17;14.37;;;7.53;;
43646;SDS011;56152;49.996;18.980;2023-02-05T13:40:36;13.73;;;7.40;;
43646;SDS011;56152;49.996;18.980;2023-02-05T13:51:58;231.33;;;78.70;;
43646;SDS011;56152;49.996;18.980;2023-02-05T13:57:43;50.10;;;21.60;;
43646;SDS011;56152;49.996;18.980;2023-02-05T14:03:35;38.67;;;18.20;;
43646;SDS011;56152;49.996;18.980;2023-02-05T14:20:29;17.90;;;8.63;;
43646;SDS011;56152;49.996;18.980;2023-02-05T14:31:11;32.73;;;14.73;;
43646;SDS011;56152;49.996;18.980;2023-02-05T14:36:53;32.93;;;16.50;;
43646;SDS011;56152;49.996;18.980;2023-02-05T14:41:57;66.63;;;32.33;;
43646;SDS011;56152;49.996;18.980;2023-02-05T14:47:06;128.27;;;61.87;;
43646;SDS011;56152;49.996;18.980;2023-02-05T14:52:25;112.47;;;52.23;;
43646;SDS011;56152;49.996;18.980;2023-02-05T14:57:35;45.47;;;18.93;;
43646;SDS011;56152;49.996;18.980;2023-02-05T15:02:52;51.70;;;18.23;;
43646;SDS011;56152;49.996;18.980;2023-02-05T15:13:14;30.23;;;12.90;;
43646;SDS011;56152;49.996;18.980;2023-02-05T15:18:20;46.80;;;20.77;;
43646;SDS011;56152;49.996;18.980;2023-02-05T15:23:30;59.90;;;24.80;;
43646;SDS011;56152;49.996;18.980;2023-02-05T15:28:46;46.93;;;21.10;;
43646;SDS011;56152;49.996;18.980;2023-02-05T15:34:01;43.50;;;16.87;;
43646;SDS011;56152;49.996;18.980;2023-02-05T15:39:15;42.97;;;17.80;;
43646;SDS011;56152;49.996;18.980;2023-02-05T15:44:25;37.72;;;18.70;;
43646;SDS011;56152;49.996;18.980;2023-02-05T15:49:33;29.77;;;14.40;;
43646;SDS011;56152;49.996;18.980;2023-02-05T15:54:37;23.63;;;12.20;;
43646;SDS011;56152;49.996;18.980;2023-02-05T15:59:40;33.23;;;14.63;;
43646;SDS011;56152;49.996;18.980;2023-02-05T16:04:51;28.60;;;12.47;;
43646;SDS011;56152;49.996;18.980;2023-02-05T16:09:57;31.73;;;15.37;;
43646;SDS011;56152;49.996;18.980;2023-02-05T16:15:01;28.43;;;12.83;;
43646;SDS011;56152;49.996;18.980;2023-02-05T16:20:12;26.73;;;13.80;;
43646;SDS011;56152;49.996;18.980;2023-02-05T16:25:32;30.17;;;15.20;;
43646;SDS011;56152;49.996;18.980;2023-02-05T16:30:42;39.43;;;17.73;;
43646;SDS011;56152;49.996;18.980;2023-02-05T16:35:56;35.37;;;15.70;;
43646;SDS011;56152;49.996;18.980;2023-02-05T16:41:18;45.73;;;20.43;;
43646;SDS011;56152;49.996;18.980;2023-02-05T16:46:24;60.77;;;26.77;;
43646;SDS011;56152;49.996;18.980;2023-02-05T16:51:50;73.03;;;29.63;;
43646;SDS011;56152;49.996;18.980;2023-02-05T16:56:58;59.43;;;27.30;;
43646;SDS011;56152;49.996;18.980;2023-02-05T17:02:04;136.23;;;49.73;;
43646;SDS011;56152;49.996;18.980;2023-02-05T17:07:16;155.97;;;59.57;;
43646;SDS011;56152;49.996;18.980;2023-02-05T17:17:47;137.70;;;57.23;;
43646;SDS011;56152;49.996;18.980;2023-02-05T17:23:08;102.07;;;43.37;;
43646;SDS011;56152;49.996;18.980;2023-02-05T17:28:13;99.63;;;38.13;;
43646;SDS011;56152;49.996;18.980;2023-02-05T17:33:19;127.73;;;47.80;;
43646;SDS011;56152;49.996;18.980;2023-02-05T17:38:29;180.90;;;67.40;;
43646;SDS011;56152;49.996;18.980;2023-02-05T17:43:32;123.73;;;48.13;;
43646;SDS011;56152;49.996;18.980;2023-02-05T17:48:34;102.00;;;41.27;;
43646;SDS011;56152;49.996;18.980;2023-02-05T17:53:38;130.17;;;52.43;;
43646;SDS011;56152;49.996;18.980;2023-02-05T17:58:41;119.57;;;51.30;;
43646;SDS011;56152;49.996;18.980;2023-02-05T18:03:43;91.90;;;41.07;;
43646;SDS011;56152;49.996;18.980;2023-02-05T18:08:47;83.30;;;35.37;;
43646;SDS011;56152;49.996;18.980;2023-02-05T18:13:49;124.27;;;46.37;;
43646;SDS011;56152;49.996;18.980;2023-02-05T18:18:52;143.17;;;56.70;;
43646;SDS011;56152;49.996;18.980;2023-02-05T18:23:55;114.47;;;45.93;;
43646;SDS011;56152;49.996;18.980;2023-02-05T18:29:06;143.13;;;55.53;;
43646;SDS011;56152;49.996;18.980;2023-02-05T18:34:09;132.90;;;52.10;;
43646;SDS011;56152;49.996;18.980;2023-02-05T18:39:13;83.33;;;36.87;;
43646;SDS011;56152;49.996;18.980;2023-02-05T18:44:17;147.50;;;61.43;;
43646;SDS011;56152;49.996;18.980;2023-02-05T18:49:22;96.73;;;41.43;;
43646;SDS011;56152;49.996;18.980;2023-02-05T18:54:25;91.83;;;43.20;;
43646;SDS011;56152;49.996;18.980;2023-02-05T18:59:29;113.60;;;47.70;;
43646;SDS011;56152;49.996;18.980;2023-02-05T19:04:31;102.40;;;40.33;;
43646;SDS011;56152;49.996;18.980;2023-02-05T19:09:37;87.13;;;40.33;;
43646;SDS011;56152;49.996;18.980;2023-02-05T19:14:40;95.77;;;40.97;;
43646;SDS011;56152;49.996;18.980;2023-02-05T19:19:44;101.20;;;38.13;;
43646;SDS011;56152;49.996;18.980;2023-02-05T19:24:48;94.47;;;36.47;;
43646;SDS011;56152;49.996;18.980;2023-02-05T19:29:52;88.60;;;37.83;;
43646;SDS011;56152;49.996;18.980;2023-02-05T19:35:03;73.87;;;29.30;;
43646;SDS011;56152;49.996;18.980;2023-02-05T19:40:37;94.40;;;36.20;;
43646;SDS011;56152;49.996;18.980;2023-02-05T19:45:39;100.07;;;43.70;;
43646;SDS011;56152;49.996;18.980;2023-02-05T19:50:41;74.97;;;36.80;;
43646;SDS011;56152;49.996;18.980;2023-02-05T19:55:50;87.03;;;37.73;;
43646;SDS011;56152;49.996;18.980;2023-02-05T20:01:10;76.77;;;34.33;;
43646;SDS011;56152;49.996;18.980;2023-02-05T20:06:14;51.47;;;23.50;;
43646;SDS011;56152;49.996;18.980;2023-02-05T20:11:19;48.83;;;20.63;;
43646;SDS011;56152;49.996;18.980;2023-02-05T20:16:21;66.07;;;28.47;;
43646;SDS011;56152;49.996;18.980;2023-02-05T20:21:27;62.63;;;28.73;;
43646;SDS011;56152;49.996;18.980;2023-02-05T20:26:31;57.73;;;26.07;;
43646;SDS011;56152;49.996;18.980;2023-02-05T20:36:43;82.57;;;36.60;;
43646;SDS011;56152;49.996;18.980;2023-02-05T20:41:50;84.47;;;38.27;;
43646;SDS011;56152;49.996;18.980;2023-02-05T20:47:00;112.47;;;48.27;;
43646;SDS011;56152;49.996;18.980;2023-02-05T20:52:11;94.90;;;39.40;;
43646;SDS011;56152;49.996;18.980;2023-02-05T20:57:15;124.57;;;45.55;;
43646;SDS011;56152;49.996;18.980;2023-02-05T21:02:18;190.33;;;69.33;;
43646;SDS011;56152;49.996;18.980;2023-02-05T21:07:21;124.67;;;49.13;;
43646;SDS011;56152;49.996;18.980;2023-02-05T21:12:32;205.87;;;73.83;;
43646;SDS011;56152;49.996;18.980;2023-02-05T21:17:34;223.50;;;83.80;;
43646;SDS011;56152;49.996;18.980;2023-02-05T21:22:37;327.40;;;103.03;;
43646;SDS011;56152;49.996;18.980;2023-02-05T21:27:41;286.60;;;98.53;;
43646;SDS011;56152;49.996;18.980;2023-02-05T21:32:43;145.73;;;55.33;;
43646;SDS011;56152;49.996;18.980;2023-02-05T21:37:52;124.00;;;46.93;;
43646;SDS011;56152;49.996;18.980;2023-02-05T21:42:56;143.23;;;54.15;;
43646;SDS011;56152;49.996;18.980;2023-02-05T21:47:58;143.40;;;55.63;;
43646;SDS011;56152;49.996;18.980;2023-02-05T21:53:06;155.23;;;65.87;;
43646;SDS011;56152;49.996;18.980;2023-02-05T21:58:10;164.13;;;67.33;;
43646;SDS011;56152;49.996;18.980;2023-02-05T22:03:12;151.00;;;61.67;;
43646;SDS011;56152;49.996;18.980;2023-02-05T22:08:15;179.90;;;68.20;;
43646;SDS011;56152;49.996;18.980;2023-02-05T22:13:19;176.67;;;67.07;;
43646;SDS011;56152;49.996;18.980;2023-02-05T22:18:21;161.77;;;64.07;;
43646;SDS011;56152;49.996;18.980;2023-02-05T22:23:25;161.17;;;62.23;;
43646;SDS011;56152;49.996;18.980;2023-02-05T22:28:29;126.67;;;51.63;;
43646;SDS011;56152;49.996;18.980;2023-02-05T22:33:31;128.57;;;55.30;;
43646;SDS011;56152;49.996;18.980;2023-02-05T22:38:35;151.53;;;64.83;;
43646;SDS011;56152;49.996;18.980;2023-02-05T22:43:41;169.03;;;63.57;;
43646;SDS011;56152;49.996;18.980;2023-02-05T22:48:44;185.00;;;74.67;;
43646;SDS011;56152;49.996;18.980;2023-02-05T22:53:47;174.80;;;67.83;;
43646;SDS011;56152;49.996;18.980;2023-02-05T22:58:52;173.63;;;66.80;;
43646;SDS011;56152;49.996;18.980;2023-02-05T23:03:56;144.67;;;57.73;;
43646;SDS011;56152;49.996;18.980;2023-02-05T23:08:59;151.37;;;57.77;;
43646;SDS011;56152;49.996;18.980;2023-02-05T23:14:05;150.00;;;60.20;;
43646;SDS011;56152;49.996;18.980;2023-02-05T23:19:15;220.20;;;96.83;;
43646;SDS011;56152;49.996;18.980;2023-02-05T23:29:40;76.90;;;31.97;;
43646;SDS011;56152;49.996;18.980;2023-02-05T23:34:55;95.57;;;39.93;;
43646;SDS011;56152;49.996;18.980;2023-02-05T23:39:58;73.43;;;33.13;;
43646;SDS011;56152;49.996;18.980;2023-02-05T23:45:02;78.63;;;33.07;;
43646;SDS011;56152;49.996;18.980;2023-02-05T23:50:05;77.87;;;37.93;;
43646;SDS011;56152;49.996;18.980;2023-02-05T23:55:10;59.17;;;27.27;;
